Port Hardy, British Columbia

2:40 PM PDT on October 31, 2014 (GMT -0700)
Malcom Island | Change Station
CLOSE
Current Station
Personal Weather Station
Location: Sointula, BRITISH COLUMBIA
Elevation: 75 ft
Nearby Weather Stations

Elev 75 ft 50.63 °N, 127.02 °W | Updated 7 minutes ago

Mostly Cloudy
Mostly Cloudy
51.1 °F
Feels Like 51.1 °F
N
1.0
Wind Variable Wind from East
Gusts 10.0 mph

Today is forecast to be nearly the same temperature as yesterday.

Today
High -- | Low -- °F
--% Chance of Precip.
Yesterday
High -- | Low -- °F
Precip. -- in
8:19 AM 6:06 PM
First Quarter, 59% visible
Pressure 29.78 in
Visibility 20.0 miles
Clouds Few 1000 ft
Mostly Cloudy 4500 ft
Mostly Cloudy 8000 ft
Dew Point 48 °F
Humidity 89%
Rainfall 0.02 in
Snow Depth Not available.
UV 1 out of 12
Pollen Not available.
Air Quality Not available.
Flu Activity Not available.
METAR CYZT 312100Z 08005KT 20SM FEW010 BKN045 BKN080 09/08 A2977 RMK SF1CU4AC1 SLP082

More Conditions Fewer Conditions

Pressure 29.78 in
Visibility 20.0 miles
Clouds Few 1000 ft
Mostly Cloudy 4500 ft
Mostly Cloudy 8000 ft
Dew Point 48 °F
Humidity 89%
Rainfall 0.02 in
Snow Depth Not available.
UV 1 out of 12
Pollen Not available.
Air Quality Not available.
Flu Activity Not available.
METAR CYZT 312100Z 08005KT 20SM FEW010 BKN045 BKN080 09/08 A2977 RMK SF1CU4AC1 SLP082

More Conditions Fewer Conditions

10-Day Weather Forecast

Almanac

Astronomy

Oct. 31, 2014 Rise Set
Actual Time
Civil Twilight
Nautical Twilight
Astronomical Twilight
Moon
Length of Visible Light
Length of Day
Tomorrow will be .
, % of the Moon is Illuminated

Today's Extremes

Country Highs Country Lows

Community

WunderPhotos

Upload Photos

1,766,740 photos uploaded!

WunderBlogs® & News

Nearby

Air Quality

  Air Quality AQ Index Pollutant
Not available.

Snow Depth

Station Depth Elevation

Earthquake Activity

City Distance Mag. Time & Date
Minimum magnitude displayed is 2.5.

Coastal Water Temperatures

Place Temperature

Nearby Weather Stations